NORTHEAST SUFFOLK  -  Coastal Flood Statement Coastal Flood Statement     Rip Current Statement Rip Current Statement     Rip Current Statement Rip Current Statement        NORTHWEST SUFFOLK  -  Coastal Flood Statement Coastal Flood Statement     Rip Current Statement Rip Current Statement     Rip Current Statement Rip Current Statement        SOUTHEAST SUFFOLK  -  Coastal Flood Statement Coastal Flood Statement     Rip Current Statement Rip Current Statement     Rip Current Statement Rip Current Statement        SOUTHWEST SUFFOLK  -  Coastal Flood Statement Coastal Flood Statement     Rip Current Statement Rip Current Statement     Rip Current Statement Rip Current Statement        NORTHERN NASSAU  -  Rip Current Statement Rip Current Statement        NORTHERN QUEENS  -  Rip Current Statement Rip Current Statement        SOUTHERN NASSAU  -  Rip Current Statement Rip Current Statement        SOUTHERN QUEENS  -  Rip Current Statement Rip Current Statement      

Active alerts

Northwest Suffolk
  Details for Northwest Suffolk Coastal Flood Statement  +2 additional alerts
Southwest Suffolk
  Details for Southwest Suffolk Coastal Flood Statement  +2 additional alerts
Northeast Suffolk
  Details for Northeast Suffolk Coastal Flood Statement  +2 additional alerts
Southeast Suffolk
  Details for Southeast Suffolk Coastal Flood Statement  +2 additional alerts
Northern Queens
  Details for Northern Queens Rip Current Statement
Southern Queens
  Details for Southern Queens Rip Current Statement
Northern Nassau
  Details for Northern Nassau Rip Current Statement
Southern Nassau
  Details for Southern Nassau Rip Current Statement


WXM80 ListenWXM80 Stop

You find our weather info also at:

UK Metoffice

WeatherCloud

Weather Underground

Northeastern Weather Network

AWEKAS

Citizen Weather Observer Program (CWOP)

HAMweather, WeatherForYou, PWS Weather


Weather Underground History page Text

Daily Summary for March 2, 2018 Units:  Metric    English   Both
« Previous Day
Next Day »
Daily Weekly Monthly Yearly Custom
  High: Low: Average:
Temperature: 5.4 °C 2.7 °C 3.7 °C
Dew Point: 4.6 °C 0.6 °C 2.7 °C
Humidity: 97 % 84 % 94 %
Wind Speed: 30.9 km/h 4.8 km/h 16.7 km/h
Wind Gust: 61.2 km/h - -
Wind:- - SSE
Pressure: 997.9 hPa 979.6 hPa -
Precipitation: 67.82 mm    
Historical Graphs
 
 
Tabular Data for March 2, 2018
Time Temperature Dew Point Pressure Wind Wind Speed Wind Gust Humidity Rainfall Rate (Hourly)
00:02 5.4 °C 4.6 °C 991.8 hPa East 17.4 km/h 22.2 km/h 94 % 1.27 mm
00:07 5.4 °C 4.6 °C 991.4 hPa East 16.9 km/h 27.8 km/h 94 % 1.27 mm
00:12 5.4 °C 4.5 °C 991.4 hPa East 19.2 km/h 24.1 km/h 94 % 1.02 mm
00:17 5.4 °C 4.5 °C 991.1 hPa East 20.1 km/h 25.7 km/h 94 % 1.02 mm
00:22 5.3 °C 4.4 °C 991.1 hPa East 21.4 km/h 27.8 km/h 94 % 0.76 mm
00:27 5.3 °C 4.4 °C 990.7 hPa East 20.8 km/h 24.1 km/h 94 % 1.02 mm
00:32 5.3 °C 4.4 °C 990.7 hPa East 23 km/h 25.9 km/h 94 % 0.76 mm
00:37 5.3 °C 4.6 °C 990.7 hPa ENE 20.4 km/h 25.9 km/h 95 % 1.02 mm
00:42 5.3 °C 4.6 °C 990.4 hPa East 19.5 km/h 24.1 km/h 95 % 1.02 mm
00:47 5.2 °C 4.5 °C 990.1 hPa ENE 19.2 km/h 24.1 km/h 95 % 1.02 mm
00:52 5.1 °C 4.4 °C 990.1 hPa East 18.8 km/h 22.2 km/h 95 % 1.27 mm
00:57 5.1 °C 4.3 °C 990.1 hPa East 15.8 km/h 18.5 km/h 95 % 1.27 mm
01:02 5 °C 4.3 °C 989.7 hPa ENE 17.1 km/h 29.6 km/h 95 % 1.52 mm
01:08 4.9 °C 4.2 °C 989.7 hPa ENE 14.8 km/h 18.5 km/h 95 % 1.78 mm
01:13 4.9 °C 4.2 °C 989.7 hPa ENE 13.5 km/h 20.9 km/h 95 % 2.03 mm
01:18 4.9 °C 4.2 °C 989.4 hPa East 15.9 km/h 20.4 km/h 95 % 2.54 mm
01:23 4.8 °C 4.1 °C 989.1 hPa ENE 11.6 km/h 20.4 km/h 95 % 2.79 mm
01:28 4.8 °C 4.2 °C 989.1 hPa East 16.6 km/h 24.1 km/h 96 % 3.05 mm
01:33 4.9 °C 4.3 °C 988.7 hPa East 14 km/h 22.2 km/h 96 % 3.56 mm
01:38 4.9 °C 4.3 °C 988.7 hPa ENE 16.1 km/h 22.5 km/h 96 % 3.81 mm
01:43 4.9 °C 4.3 °C 988.4 hPa ENE 19.3 km/h 25.9 km/h 96 % 4.32 mm
01:48 4.9 °C 4.3 °C 987.7 hPa East 18.5 km/h 31.5 km/h 96 % 4.32 mm
01:53 4.9 °C 4.3 °C 987.7 hPa ENE 17.7 km/h 25.9 km/h 96 % 4.57 mm
01:58 4.9 °C 4.3 °C 987.7 hPa ENE 12.9 km/h 20.4 km/h 96 % 5.08 mm
02:03 4.9 °C 4.3 °C 987.7 hPa ENE 16.7 km/h 22.5 km/h 96 % 5.08 mm
02:08 4.9 °C 4.3 °C 987.4 hPa ENE 14.6 km/h 18.5 km/h 96 % 5.08 mm
02:13 4.9 °C 4.3 °C 987.4 hPa NE 12.9 km/h 22.2 km/h 96 % 5.08 mm
02:18 4.9 °C 4.3 °C 987 hPa NE 15.6 km/h 20.4 km/h 96 % 5.08 mm
02:23 4.9 °C 4.3 °C 986.7 hPa ENE 14.2 km/h 20.9 km/h 96 % 5.59 mm
02:28 4.8 °C 4.2 °C 986.7 hPa ENE 13.4 km/h 22.2 km/h 96 % 5.59 mm
02:33 4.9 °C 4.3 °C 986.3 hPa ENE 12.4 km/h 22.2 km/h 96 % 5.59 mm
02:38 4.8 °C 4.2 °C 986.3 hPa NE 14.2 km/h 22.2 km/h 96 % 5.59 mm
02:43 4.8 °C 4.2 °C 986 hPa ENE 16.1 km/h 20.4 km/h 96 % 5.33 mm
02:48 4.8 °C 4.2 °C 986.3 hPa NE 15.8 km/h 20.4 km/h 96 % 5.33 mm
02:53 4.8 °C 4.2 °C 986 hPa East 13.4 km/h 20.4 km/h 96 % 5.33 mm
02:54 4.8 °C 4.2 °C 986 hPa ENE 13.8 km/h 18.5 km/h 96 % 5.33 mm
02:59 4.8 °C 4.3 °C 986 hPa ENE 14.8 km/h 20.4 km/h 97 % 5.33 mm
03:04 4.8 °C 4.3 °C 985.7 hPa ENE 14.3 km/h 18.5 km/h 97 % 5.33 mm
03:09 4.8 °C 4.3 °C 985.7 hPa East 12.1 km/h 16.1 km/h 97 % 5.33 mm
03:14 4.8 °C 4.3 °C 985.7 hPa NE 13.8 km/h 18.5 km/h 97 % 5.84 mm
03:19 4.8 °C 4.3 °C 985.7 hPa ENE 7.7 km/h 13 km/h 97 % 5.59 mm
03:24 4.8 °C 4.3 °C 985.7 hPa NNE 4.8 km/h 6.4 km/h 97 % 5.59 mm
03:29 4.8 °C 4.3 °C 985.7 hPa NE 6.3 km/h 9.3 km/h 97 % 5.33 mm
03:34 4.8 °C 4.3 °C 985.3 hPa NE 7.2 km/h 13 km/h 97 % 5.59 mm
03:39 4.7 °C 4.3 °C 985.3 hPa NNE 13.8 km/h 20.4 km/h 97 % 5.59 mm
03:44 4.7 °C 4.1 °C 985 hPa NNE 7.9 km/h 16.7 km/h 96 % 6.35 mm
03:49 4.7 °C 4.1 °C 985 hPa NE 9.5 km/h 20.4 km/h 96 % 6.6 mm
03:54 4.6 °C 4.1 °C 985 hPa NNE 14 km/h 18.5 km/h 96 % 7.11 mm
03:59 4.6 °C 4 °C 984.6 hPa NNE 15.1 km/h 20.4 km/h 96 % 7.37 mm
04:05 4.5 °C 4.1 °C 984.6 hPa NE 15.3 km/h 20.4 km/h 97 % 7.87 mm
04:10 4.5 °C 4.1 °C 984.3 hPa NNE 15.9 km/h 20.4 km/h 97 % 8.13 mm
04:15 4.4 °C 4 °C 984 hPa NNE 19.8 km/h 27.4 km/h 97 % 7.62 mm
04:20 4.3 °C 3.8 °C 984 hPa NNE 12.7 km/h 22.5 km/h 96 % 7.62 mm
04:25 4.3 °C 3.8 °C 984 hPa NE 12.7 km/h 19.3 km/h 96 % 7.37 mm
04:30 4.3 °C 3.7 °C 984.3 hPa NNW 10.5 km/h 20.4 km/h 96 % 7.11 mm
04:35 4.3 °C 3.8 °C 983.6 hPa NNE 11.7 km/h 18.5 km/h 97 % 7.11 mm
04:40 4.3 °C 3.8 °C 983.3 hPa NNE 13.5 km/h 19.3 km/h 97 % 6.6 mm
04:45 4.3 °C 3.8 °C 983.3 hPa NNE 13.4 km/h 20.9 km/h 97 % 6.1 mm
04:50 4.2 °C 3.8 °C 983 hPa NNE 15.6 km/h 24.1 km/h 97 % 5.59 mm
04:55 4.2 °C 3.8 °C 983.3 hPa NNE 12.2 km/h 18.5 km/h 97 % 4.83 mm
05:00 4.2 °C 3.7 °C 983.3 hPa NNE 18.5 km/h 25.9 km/h 97 % 4.32 mm
05:05 4.1 °C 3.7 °C 983 hPa NE 13.8 km/h 20.4 km/h 97 % 4.06 mm
05:10 4.1 °C 3.6 °C 983 hPa North 8 km/h 18.5 km/h 97 % 3.81 mm
05:15 4.1 °C 3.6 °C 983 hPa NNE 9.7 km/h 14.8 km/h 97 % 4.32 mm
05:20 4 °C 3.6 °C 983 hPa NNE 11.9 km/h 18.5 km/h 97 % 4.57 mm
05:25 3.9 °C 3.5 °C 983 hPa NNE 15.6 km/h 22.2 km/h 97 % 5.08 mm
05:30 3.9 °C 3.4 °C 982.6 hPa NE 15.4 km/h 18.5 km/h 97 % 5.33 mm
05:35 3.8 °C 3.4 °C 982.3 hPa NNE 20.3 km/h 25.9 km/h 97 % 5.59 mm
05:41 3.8 °C 3.3 °C 982.3 hPa NNE 16.3 km/h 24.1 km/h 97 % 5.84 mm
05:46 3.8 °C 3.2 °C 982.3 hPa NNE 14.5 km/h 27.4 km/h 96 % 0.25 mm
05:51 3.7 °C 3.2 °C 982.3 hPa NNE 12.9 km/h 27.4 km/h 96 % 0.25 mm
05:56 3.7 °C 3.1 °C 982.3 hPa NNE 16.1 km/h 29 km/h 96 % 0 mm
06:01 3.6 °C 3.1 °C 982.3 hPa NNE 18.3 km/h 25.7 km/h 96 % 7.11 mm
06:06 3.6 °C 3.2 °C 982.3 hPa North 16.1 km/h 29.6 km/h 97 % 6.86 mm
06:11 3.6 °C 3.1 °C 982.6 hPa NNE 14.5 km/h 25.7 km/h 97 % 0 mm
06:16 3.5 °C 3.1 °C 982.6 hPa NNE 12.9 km/h 25.7 km/h 97 % 0 mm
06:21 3.5 °C 3.1 °C 982.6 hPa NNE 12.9 km/h 25.7 km/h 97 % 0 mm
06:26 3.4 °C 3 °C 982.6 hPa NNE 19.3 km/h 27.4 km/h 97 % 0 mm
06:31 3.4 °C 2.9 °C 982.6 hPa NNE 11.3 km/h 19.3 km/h 96 % 0.25 mm
06:36 3.4 °C 2.8 °C 982.6 hPa NNE 14.5 km/h 22.5 km/h 96 % 0.25 mm
06:41 3.4 °C 2.8 °C 982.6 hPa North 12.9 km/h 24.1 km/h 96 % 0 mm
06:46 3.3 °C 2.8 °C 982.6 hPa NNE 12.9 km/h 22.5 km/h 96 % 0 mm
06:51 3.3 °C 2.8 °C 982.6 hPa NNE 11.3 km/h 20.9 km/h 96 % 0.25 mm
06:56 3.3 °C 2.7 °C 982.6 hPa NNE 14.5 km/h 27.4 km/h 96 % 0 mm
07:01 3.3 °C 2.8 °C 982.6 hPa North 11.7 km/h 18.5 km/h 97 % 4.32 mm
07:06 3.2 °C 2.8 °C 982.3 hPa NNE 12.9 km/h 18.5 km/h 97 % 4.06 mm
07:11 3.2 °C 2.8 °C 982.3 hPa NNW 11.7 km/h 20.4 km/h 97 % 4.57 mm
07:16 3.2 °C 2.8 °C 981.9 hPa NE 11.9 km/h 16.7 km/h 97 % 4.83 mm
07:21 3.2 °C 2.8 °C 981.9 hPa ENE 13.5 km/h 24.1 km/h 97 % 5.59 mm
07:26 3.2 °C 2.8 °C 981.3 hPa North 14.8 km/h 25.7 km/h 97 % 6.1 mm
07:31 3.2 °C 2.7 °C 981.3 hPa North 16.4 km/h 24.1 km/h 97 % 6.35 mm
07:36 3.2 °C 2.7 °C 981.3 hPa NNE 14.8 km/h 31.5 km/h 97 % 6.6 mm
07:41 3.2 °C 2.7 °C 981.3 hPa NE 11.6 km/h 18.5 km/h 97 % 7.11 mm
07:46 3.2 °C 2.7 °C 981.3 hPa North 14.8 km/h 22.2 km/h 97 % 7.37 mm
07:52 3.2 °C 2.7 °C 981.3 hPa North 16.6 km/h 22.2 km/h 97 % 7.37 mm
07:57 3.2 °C 2.8 °C 981.3 hPa NE 12.7 km/h 24.1 km/h 97 % 7.87 mm
08:02 3.2 °C 2.8 °C 980.9 hPa NNE 14.5 km/h 27.8 km/h 97 % 7.87 mm
08:07 3.3 °C 2.8 °C 980.9 hPa NNE 17.7 km/h 27.8 km/h 97 % 7.87 mm
08:12 3.3 °C 2.8 °C 980.9 hPa North 12.6 km/h 25.9 km/h 97 % 7.62 mm
08:17 3.3 °C 2.8 °C 980.9 hPa NNE 11.7 km/h 22.2 km/h 97 % 7.11 mm
08:22 3.3 °C 2.9 °C 980.6 hPa North 13.8 km/h 20.4 km/h 97 % 6.86 mm
08:27 3.3 °C 2.9 °C 980.9 hPa NE 16.1 km/h 29.6 km/h 97 % 6.35 mm
08:32 3.4 °C 2.9 °C 980.6 hPa NNE 13.2 km/h 22.2 km/h 97 % 5.84 mm
08:37 3.4 °C 2.9 °C 980.6 hPa NNW 10.1 km/h 13 km/h 97 % 5.33 mm
08:42 3.4 °C 3 °C 980.6 hPa NNE 11.6 km/h 22.2 km/h 97 % 5.08 mm
08:47 3.4 °C 3 °C 980.6 hPa North 10.8 km/h 18.5 km/h 97 % 4.83 mm
08:52 3.5 °C 3.1 °C 980.6 hPa NNE 13.4 km/h 18.5 km/h 97 % 4.57 mm
08:57 3.5 °C 3.1 °C 980.6 hPa North 9.5 km/h 18.5 km/h 97 % 4.32 mm
09:02 3.4 °C 3 °C 980.6 hPa NNE 12.1 km/h 18.5 km/h 97 % 4.06 mm
09:07 3.5 °C 3.1 °C 980.6 hPa NE 13.4 km/h 18.5 km/h 97 % 4.06 mm
09:12 3.6 °C 3.1 °C 980.6 hPa NNE 14.3 km/h 22.2 km/h 97 % 3.81 mm
09:17 3.6 °C 3.1 °C 980.6 hPa NNE 8.4 km/h 18.5 km/h 97 % 4.06 mm
09:23 3.6 °C 3.2 °C 980.6 hPa NNW 7.6 km/h 18.5 km/h 97 % 4.06 mm
09:28 3.7 °C 3.2 °C 980.6 hPa North 7.7 km/h 18.5 km/h 97 % 4.32 mm
09:33 3.7 °C 3.3 °C 980.6 hPa NNW 7.6 km/h 18.5 km/h 97 % 4.57 mm
09:38 3.8 °C 3.3 °C 980.6 hPa NNW 8 km/h 25.9 km/h 97 % 4.57 mm
09:43 3.8 °C 3.4 °C 980.6 hPa NNE 15.6 km/h 22.2 km/h 97 % 4.83 mm
09:48 3.9 °C 3.4 °C 980.2 hPa North 6.4 km/h 11.1 km/h 97 % 5.08 mm
09:53 3.9 °C 3.4 °C 980.2 hPa NNW 10.8 km/h 16.7 km/h 97 % 5.33 mm
09:58 3.9 °C 3.5 °C 980.2 hPa North 9.5 km/h 18.5 km/h 97 % 5.59 mm
10:03 4 °C 3.6 °C 980.2 hPa NNW 5.1 km/h 16.7 km/h 97 % 5.84 mm
10:08 3.9 °C 3.5 °C 980.2 hPa NNE 10.3 km/h 16.1 km/h 97 % 5.84 mm
10:13 3.9 °C 3.5 °C 980.2 hPa North 12.7 km/h 22.2 km/h 97 % 5.59 mm
10:18 4 °C 3.6 °C 979.9 hPa NNW 10.5 km/h 22.5 km/h 97 % 5.84 mm
10:23 4 °C 3.6 °C 980.2 hPa NW 14.5 km/h 24.1 km/h 97 % 5.84 mm
10:28 3.9 °C 3.5 °C 980.2 hPa NW 6.8 km/h 13 km/h 97 % 5.84 mm
10:33 3.8 °C 3.4 °C 980.2 hPa NNW 9.5 km/h 18.5 km/h 97 % 5.84 mm
10:38 3.8 °C 3.3 °C 980.2 hPa NNW 5.1 km/h 11.1 km/h 97 % 6.1 mm
10:43 3.8 °C 3.3 °C 980.2 hPa NNW 7.7 km/h 11.1 km/h 97 % 6.35 mm
10:48 3.8 °C 3.3 °C 980.2 hPa North 7.7 km/h 11.3 km/h 97 % 6.35 mm
10:53 3.8 °C 3.4 °C 980.6 hPa NNW 6.6 km/h 11.3 km/h 97 % 6.6 mm
10:58 3.8 °C 3.3 °C 980.6 hPa NW 10.5 km/h 18.5 km/h 97 % 6.6 mm
11:03 3.7 °C 3.3 °C 980.9 hPa NW 10.8 km/h 19.3 km/h 97 % 6.6 mm
11:09 3.7 °C 3.2 °C 980.6 hPa NNW 13.4 km/h 31.5 km/h 97 % 6.6 mm
11:14 3.6 °C 3.2 °C 980.6 hPa NW 12.9 km/h 24.1 km/h 97 % 6.86 mm
11:19 3.6 °C 3.1 °C 980.6 hPa NW 11.4 km/h 22.2 km/h 97 % 6.86 mm
11:24 3.5 °C 3.1 °C 980.6 hPa North 14.3 km/h 31.5 km/h 97 % 6.86 mm
11:29 3.4 °C 2.9 °C 980.6 hPa WNW 9.8 km/h 18.5 km/h 96 % 6.6 mm
11:34 3.4 °C 2.8 °C 980.6 hPa NNW 11.4 km/h 24.1 km/h 96 % 6.6 mm
11:39 3.4 °C 2.8 °C 980.2 hPa North 15.3 km/h 29.6 km/h 96 % 6.6 mm
11:44 3.3 °C 2.7 °C 980.2 hPa NNW 14.5 km/h 31.5 km/h 96 % 6.1 mm
11:49 3.2 °C 2.6 °C 979.9 hPa North 11.7 km/h 18.5 km/h 96 % 5.59 mm
11:54 3.1 °C 2.6 °C 980.2 hPa North 14.6 km/h 22.2 km/h 96 % 5.59 mm
11:59 3.2 °C 2.6 °C 980.2 hPa NNE 16.6 km/h 33.3 km/h 96 % 5.08 mm
12:04 3.2 °C 2.6 °C 979.9 hPa NW 17.7 km/h 29.6 km/h 96 % 4.83 mm
12:09 3.1 °C 2.6 °C 979.9 hPa NNE 21.7 km/h 42.6 km/h 96 % 4.32 mm
12:14 3.1 °C 2.5 °C 979.9 hPa NE 22 km/h 31.5 km/h 96 % 3.81 mm
12:19 3 °C 2.4 °C 979.6 hPa NNW 20.6 km/h 31.5 km/h 96 % 3.56 mm
12:24 2.9 °C 2.4 °C 979.6 hPa NNW 21.1 km/h 31.5 km/h 96 % 3.05 mm
12:29 3 °C 2.4 °C 979.6 hPa North 18 km/h 22.2 km/h 96 % 2.79 mm
12:34 3 °C 2.4 °C 979.6 hPa North 23.7 km/h 33.3 km/h 96 % 2.54 mm
12:39 3.1 °C 2.5 °C 979.6 hPa NNE 24.9 km/h 31.5 km/h 96 % 2.03 mm
12:45 3.1 °C 2.5 °C 979.6 hPa NW 24.1 km/h 35.2 km/h 96 % 1.78 mm
12:50 3.1 °C 2.5 °C 979.6 hPa NNW 27.4 km/h 49.9 km/h 96 % 1.78 mm
12:55 3 °C 2.4 °C 979.6 hPa NNW 22.4 km/h 48.1 km/h 96 % 1.27 mm
13:00 3 °C 2.4 °C 979.6 hPa NNW 27.2 km/h 61.2 km/h 96 % 1.02 mm
13:05 2.9 °C 2.3 °C 979.9 hPa NNW 25.3 km/h 57.5 km/h 96 % 1.27 mm
13:10 2.9 °C 2.3 °C 979.9 hPa NE 26.4 km/h 50 km/h 96 % 1.02 mm
13:15 2.9 °C 2.3 °C 979.9 hPa NNE 28.6 km/h 42.6 km/h 96 % 1.27 mm
13:20 2.9 °C 2.4 °C 979.9 hPa North 21.7 km/h 37 km/h 96 % 1.02 mm
13:25 2.9 °C 2.4 °C 979.9 hPa North 20 km/h 51.5 km/h 96 % 1.27 mm
13:30 3 °C 2.3 °C 979.9 hPa NNW 24.9 km/h 44.4 km/h 95 % 1.02 mm
13:35 3.1 °C 2.6 °C 980.2 hPa NNE 26.2 km/h 51.5 km/h 96 % 1.27 mm
13:40 3.2 °C 2.4 °C 980.2 hPa North 28.6 km/h 42.6 km/h 95 % 1.27 mm
13:45 3.2 °C 2.4 °C 979.9 hPa NNE 24.9 km/h 45.1 km/h 95 % 1.27 mm
13:50 3.2 °C 2.5 °C 979.9 hPa NE 22.4 km/h 45.1 km/h 95 % 1.02 mm
13:55 3.2 °C 2.5 °C 980.2 hPa NNE 22 km/h 37 km/h 95 % 1.02 mm
14:00 3.2 °C 2.5 °C 980.2 hPa North 25.3 km/h 46.3 km/h 95 % 1.02 mm
14:05 3.2 °C 2.3 °C 980.6 hPa NNW 25.1 km/h 40.7 km/h 94 % 0.76 mm
14:10 3.3 °C 2.4 °C 980.9 hPa NNE 22 km/h 38.9 km/h 94 % 0.76 mm
14:15 3.3 °C 2.4 °C 980.9 hPa NNE 22.5 km/h 29.6 km/h 94 % 0.51 mm
14:20 3.4 °C 2.5 °C 980.9 hPa North 18.8 km/h 42.6 km/h 94 % 0.76 mm
14:26 3.4 °C 2.5 °C 980.9 hPa NNW 25.7 km/h 57.9 km/h 94 % 0 mm
14:31 3.4 °C 2.5 °C 980.9 hPa North 25.7 km/h 56.3 km/h 94 % 0 mm
14:36 3.3 °C 2.4 °C 981.3 hPa North 22.5 km/h 45.1 km/h 94 % 0 mm
14:41 3.4 °C 2.5 °C 981.3 hPa North 22.5 km/h 40.2 km/h 94 % 0 mm
14:46 3.4 °C 2.4 °C 981.6 hPa North 24.1 km/h 46.7 km/h 93 % 0 mm
14:51 3.4 °C 2.4 °C 981.9 hPa North 29 km/h 46.7 km/h 93 % 0 mm
14:56 3.4 °C 2.4 °C 981.9 hPa North 24.1 km/h 43.5 km/h 93 % 0 mm
15:01 3.4 °C 2.4 °C 981.9 hPa NE 22 km/h 35.2 km/h 93 % 0.25 mm
15:06 3.4 °C 2.4 °C 981.9 hPa NNE 20.6 km/h 40.2 km/h 93 % 0.25 mm
15:11 3.4 °C 2.4 °C 981.9 hPa North 18.8 km/h 44.4 km/h 93 % 0.25 mm
15:16 3.3 °C 2.3 °C 982.3 hPa NE 22.9 km/h 42.6 km/h 93 % 0.25 mm
15:21 3.3 °C 2.3 °C 982.6 hPa NNW 20.6 km/h 33.3 km/h 93 % 0 mm
15:26 3.3 °C 2.3 °C 982.6 hPa NW 24.6 km/h 51.8 km/h 93 % 0 mm
15:31 3.3 °C 2.3 °C 983 hPa NNW 26.1 km/h 40.7 km/h 93 % 0 mm
15:36 3.3 °C 2.3 °C 983.3 hPa North 24.8 km/h 53.1 km/h 93 % 0.25 mm
15:41 3.3 °C 2.3 °C 983.3 hPa NNW 22 km/h 46.3 km/h 93 % 0.25 mm
15:46 3.3 °C 2.3 °C 983.6 hPa North 25.6 km/h 42.6 km/h 93 % 0.25 mm
15:52 3.3 °C 2.3 °C 983.6 hPa NE 26.6 km/h 48.1 km/h 93 % 0.25 mm
15:57 3.3 °C 2.3 °C 983.6 hPa NNW 24.6 km/h 35.4 km/h 93 % 0.25 mm
16:02 3.2 °C 2.2 °C 984 hPa NNW 28.2 km/h 48.1 km/h 93 % 0.25 mm
16:07 3.2 °C 2.2 °C 984 hPa NNW 25.3 km/h 35.4 km/h 93 % 0.25 mm
16:12 3.1 °C 2.1 °C 984.3 hPa North 30.9 km/h 42.6 km/h 93 % 0.25 mm
16:17 3.1 °C 2.1 °C 984.6 hPa North 23 km/h 31.5 km/h 93 % 0.25 mm
16:23 3.1 °C 2.1 °C 984.6 hPa North 25.7 km/h 37 km/h 93 % 0.25 mm
16:28 3.1 °C 2.1 °C 984.6 hPa NNE 27.7 km/h 42.6 km/h 93 % 0.51 mm
16:33 3 °C 2 °C 985.3 hPa NNE 22.7 km/h 46.3 km/h 93 % 0.25 mm
16:38 3 °C 2 °C 985.3 hPa North 25.6 km/h 44.4 km/h 93 % 0.25 mm
16:43 2.9 °C 1.9 °C 985.7 hPa NNE 17.5 km/h 48.1 km/h 93 % 0.25 mm
16:48 2.9 °C 1.9 °C 986 hPa NW 21.4 km/h 35.2 km/h 93 % 0.25 mm
16:53 2.9 °C 1.9 °C 986 hPa NNW 25.6 km/h 40.7 km/h 93 % 0.25 mm
16:58 2.8 °C 1.8 °C 986.7 hPa NNE 22.4 km/h 53.8 km/h 93 % 0.25 mm
17:03 2.8 °C 1.8 °C 986.7 hPa NE 27.4 km/h 48.1 km/h 93 % 0.51 mm
17:08 2.7 °C 1.7 °C 986.7 hPa NW 22 km/h 42.6 km/h 93 % 0.51 mm
17:13 2.7 °C 1.8 °C 987 hPa North 23.5 km/h 40.7 km/h 94 % 0.51 mm
17:19 2.7 °C 1.8 °C 987.4 hPa NNE 22.2 km/h 40.7 km/h 94 % 0.76 mm
17:24 2.7 °C 1.8 °C 987.4 hPa North 22.2 km/h 44.4 km/h 94 % 0.51 mm
17:29 2.8 °C 1.9 °C 987.7 hPa NNW 21.1 km/h 48.1 km/h 94 % 0.51 mm
17:34 2.8 °C 1.9 °C 987.7 hPa North 23.8 km/h 45.1 km/h 94 % 0.51 mm
17:39 2.9 °C 2 °C 987.7 hPa NNW 16.9 km/h 50 km/h 94 % 0.51 mm
17:44 2.9 °C 1.9 °C 988.4 hPa North 22.2 km/h 40.7 km/h 93 % 0.76 mm
17:49 3 °C 2 °C 988.7 hPa NNW 22.9 km/h 40.7 km/h 93 % 0.76 mm
17:54 3 °C 2 °C 989.1 hPa North 28.5 km/h 51.8 km/h 93 % 0.76 mm
17:59 3.1 °C 2.1 °C 989.1 hPa NE 28.2 km/h 42.6 km/h 93 % 0.76 mm
18:04 3.1 °C 1.9 °C 989.4 hPa North 18.7 km/h 37 km/h 92 % 0.51 mm
18:09 3.2 °C 2 °C 989.7 hPa North 21.9 km/h 32.2 km/h 92 % 0.51 mm
18:14 3.2 °C 2 °C 989.7 hPa NNW 18 km/h 31.5 km/h 92 % 0.25 mm
18:19 3.2 °C 1.9 °C 990.1 hPa NNW 26.7 km/h 42.6 km/h 91 % 0.25 mm
18:24 3.3 °C 1.9 °C 990.1 hPa NNW 17.5 km/h 31.5 km/h 91 % 0.25 mm
18:29 3.3 °C 1.9 °C 990.4 hPa NNW 14.8 km/h 33.3 km/h 91 % 0.25 mm
18:34 3.3 °C 1.9 °C 990.7 hPa NNW 19.8 km/h 35.2 km/h 91 % 0.25 mm
18:39 3.3 °C 1.9 °C 991.1 hPa NNE 15.8 km/h 24.1 km/h 91 % 0.25 mm
18:44 3.2 °C 1.9 °C 991.1 hPa NNE 15.3 km/h 25.9 km/h 91 % 0 mm
18:49 3.2 °C 1.8 °C 991.4 hPa NNE 20.1 km/h 33.3 km/h 91 % 0 mm
18:55 3.2 °C 1.8 °C 991.4 hPa North 18.5 km/h 27.8 km/h 91 % 0 mm
19:00 3.2 °C 1.8 °C 991.4 hPa NNW 19.5 km/h 22.2 km/h 91 % 0 mm
19:05 3.2 °C 1.8 °C 991.4 hPa NNW 17.2 km/h 31.5 km/h 91 % 0 mm
19:10 3.2 °C 1.8 °C 991.8 hPa NNW 16.6 km/h 33.8 km/h 91 % 0 mm
19:15 3.2 °C 1.8 °C 991.4 hPa NE 15.9 km/h 30.6 km/h 91 % 0 mm
19:20 3.2 °C 1.8 °C 991.8 hPa NW 15.8 km/h 30.6 km/h 91 % 0 mm
19:25 3.2 °C 1.9 °C 992.1 hPa NNW 17.7 km/h 29.6 km/h 91 % 0 mm
19:30 3.3 °C 1.8 °C 992.1 hPa NNW 13.7 km/h 27.8 km/h 90 % 0 mm
19:35 3.3 °C 1.8 °C 992.1 hPa NNE 21.2 km/h 38.9 km/h 90 % 0 mm
19:40 3.3 °C 1.8 °C 992.4 hPa ENE 15.8 km/h 35.4 km/h 90 % 0 mm
19:45 3.3 °C 1.7 °C 992.8 hPa WNW 15.3 km/h 20.4 km/h 89 % 0 mm
19:50 3.4 °C 1.7 °C 992.4 hPa NNW 18.8 km/h 25.9 km/h 89 % 0 mm
19:55 3.4 °C 1.8 °C 992.4 hPa NW 16.1 km/h 33.3 km/h 89 % 0 mm
20:00 3.4 °C 1.7 °C 992.4 hPa NNW 14 km/h 31.5 km/h 88 % 0 mm
20:05 3.4 °C 1.7 °C 992.4 hPa NNW 16.6 km/h 24.1 km/h 88 % 0 mm
20:10 3.5 °C 1.7 °C 992.8 hPa NW 16.1 km/h 27.8 km/h 88 % 0 mm
20:15 3.4 °C 1.7 °C 992.8 hPa NW 14.2 km/h 33.3 km/h 88 % 0 mm
20:20 3.4 °C 1.7 °C 993.1 hPa NW 20.3 km/h 40.2 km/h 88 % 0 mm
20:25 3.4 °C 1.6 °C 993.1 hPa North 13.7 km/h 24.1 km/h 88 % 0 mm
20:30 3.4 °C 1.6 °C 993.5 hPa North 17.7 km/h 35.2 km/h 88 % 0 mm
20:36 3.4 °C 1.4 °C 993.5 hPa NNW 20.6 km/h 24.1 km/h 87 % 0 mm
20:41 3.4 °C 1.4 °C 993.8 hPa NNW 16.1 km/h 32.2 km/h 87 % 0 mm
20:46 3.4 °C 1.4 °C 993.8 hPa NNW 14.5 km/h 33.8 km/h 87 % 0 mm
20:50 3.3 °C 1.4 °C 993.8 hPa North 15.6 km/h 42.6 km/h 87 % 0 mm
20:56 3.4 °C 1.4 °C 993.8 hPa North 12.9 km/h 27.4 km/h 87 % 0 mm
21:01 3.3 °C 1.4 °C 994.1 hPa NNW 10.6 km/h 22.2 km/h 87 % 0 mm
21:06 3.3 °C 1.3 °C 994.5 hPa WNW 15.3 km/h 31.5 km/h 87 % 0 mm
21:11 3.3 °C 1.3 °C 994.5 hPa NNW 13.7 km/h 24.1 km/h 87 % 0 mm
21:16 3.3 °C 1.3 °C 994.8 hPa NNE 17.5 km/h 33.3 km/h 87 % 0 mm
21:21 3.3 °C 1.4 °C 994.8 hPa NNW 12.9 km/h 22.2 km/h 87 % 0 mm
21:26 3.3 °C 1.2 °C 995.1 hPa NNE 20.9 km/h 31.5 km/h 86 % 0 mm
21:31 3.4 °C 1.3 °C 995.5 hPa North 16.7 km/h 27.8 km/h 86 % 0 mm
21:36 3.4 °C 1.3 °C 995.5 hPa North 15.3 km/h 22.2 km/h 86 % 0 mm
21:41 3.4 °C 1.2 °C 995.5 hPa North 17.9 km/h 33.3 km/h 85 % 0 mm
21:46 3.4 °C 1.2 °C 995.5 hPa NNW 8 km/h 18.5 km/h 85 % 0 mm
21:51 3.4 °C 1.2 °C 995.8 hPa North 9.8 km/h 18.5 km/h 85 % 0 mm
21:56 3.4 °C 1.1 °C 996.2 hPa North 21.2 km/h 33.3 km/h 85 % 0 mm
22:01 3.4 °C 1.1 °C 996.2 hPa NW 12.1 km/h 19.3 km/h 85 % 0 mm
22:06 3.4 °C 1.1 °C 996.2 hPa North 12.9 km/h 22.2 km/h 85 % 0 mm
22:11 3.3 °C 1.1 °C 996.5 hPa NNW 16.1 km/h 31.5 km/h 85 % 0 mm
22:16 3.3 °C 1.2 °C 996.2 hPa NNW 8.7 km/h 18.5 km/h 86 % 0 mm
22:21 3.3 °C 1 °C 996.5 hPa North 20.3 km/h 42.6 km/h 85 % 0 mm
22:26 3.2 °C 0.9 °C 996.5 hPa NNE 18.2 km/h 31.5 km/h 85 % 0 mm
22:31 3.2 °C 0.9 °C 996.5 hPa North 10.1 km/h 20.4 km/h 85 % 0 mm
22:37 3.2 °C 1.1 °C 996.5 hPa NNE 16.7 km/h 22.2 km/h 86 % 0 mm
22:42 3.2 °C 1.1 °C 996.5 hPa NNE 14 km/h 25.9 km/h 86 % 0 mm
22:47 3.2 °C 1.1 °C 996.8 hPa North 13.2 km/h 37 km/h 86 % 0 mm
22:52 3.2 °C 0.9 °C 996.8 hPa North 10.9 km/h 40.2 km/h 85 % 0 mm
22:57 3.2 °C 0.9 °C 996.8 hPa NNE 13.5 km/h 27.8 km/h 85 % 0 mm
23:02 3.2 °C 0.9 °C 997.2 hPa North 10.8 km/h 31.5 km/h 85 % 0 mm
23:07 3.2 °C 0.9 °C 997.2 hPa NNW 12.9 km/h 25.9 km/h 85 % 0 mm
23:12 3.2 °C 0.9 °C 997.2 hPa NW 19.6 km/h 27.8 km/h 85 % 0 mm
23:17 3.1 °C 0.8 °C 997.2 hPa NNE 16.6 km/h 33.3 km/h 85 % 0 mm
23:22 3.1 °C 0.8 °C 997.5 hPa North 16.4 km/h 33.3 km/h 85 % 0 mm
23:27 3.1 °C 0.8 °C 997.5 hPa NNW 15.3 km/h 27.8 km/h 85 % 0 mm
23:32 3.1 °C 0.8 °C 997.5 hPa NNE 18.3 km/h 31.5 km/h 85 % 0 mm
23:37 3.1 °C 0.7 °C 997.5 hPa North 17.5 km/h 27.8 km/h 84 % 0 mm
23:42 3.1 °C 0.8 °C 997.5 hPa NNE 24.6 km/h 33.3 km/h 85 % 0 mm
23:47 3.1 °C 0.7 °C 997.9 hPa NNW 12.1 km/h 18.5 km/h 84 % 0 mm
23:52 3.1 °C 0.6 °C 997.5 hPa NNW 13.7 km/h 22.2 km/h 84 % 0 mm
23:57 3.1 °C 0.6 °C 997.9 hPa NNE 16.9 km/h 37 km/h 84 % 0 mm
Crab Meadow Weather
Compliments of Weather Underground - 3 mb

Script developed by  Jim McMurry - jmcmurry@mwt.net Adapted for the template by  Wim van der Kuil - Leuven-Template.eu

Hurricanes: In one day a hurricane can release enough energy to supply all of the nation's electrical needs for about six months.